Time;durP1;ratioP1;P1;durP2;ratioP2;P2;SDS_P1;SDS_P2;PMS_P1;PMS_P2;Temp;Humidity;BMP_temperature;BMP_pressure;BME280_temperature;BME280_humidity;BME280_pressure;Samples;Min_cycle;Max_cycle;Signal;HPM_P1;HPM_P2
2023/07/28 00:01:09;;;;;;;0.00;0.00;;;;;;;;;;7376409;19;20188;-72
2023/07/28 00:03:38;;;;;;;0.00;0.00;;;;;;;;;;7380868;19;20143;-73
2023/07/28 00:06:07;;;;;;;0.00;0.00;;;;;;;;;;7379844;19;20156;-73
2023/07/28 00:08:36;;;;;;;0.00;0.00;;;;;;;;;;7381304;19;20148;-72
2023/07/28 00:11:06;;;;;;;0.00;0.00;;;;;;;;;;7375803;19;20188;-72
2023/07/28 00:13:35;;;;;;;0.00;0.00;;;;;;;;;;7379989;19;20172;-72
2023/07/28 00:16:03;;;;;;;0.00;0.00;;;;;;;;;;7378682;19;20204;-73
2023/07/28 00:18:35;;;;;;;0.00;0.00;;;;;;;;;;7381408;19;20141;-73
2023/07/28 00:21:04;;;;;;;0.00;0.00;;;;;;;;;;7376546;19;20620;-73
2023/07/28 00:23:33;;;;;;;0.00;0.00;;;;;;;;;;7379450;19;20156;-72
2023/07/28 00:26:02;;;;;;;0.00;0.00;;;;;;;;;;7380063;19;20137;-74
2023/07/28 00:28:31;;;;;;;0.00;0.00;;;;;;;;;;7381901;19;20125;-73
2023/07/28 00:31:00;;;;;;;0.00;0.00;;;;;;;;;;7376735;19;20172;-73
2023/07/28 00:33:29;;;;;;;0.00;0.00;;;;;;;;;;7380753;19;20631;-73
2023/07/28 00:36:02;;;;;;;0.00;0.00;;;;;;;;;;7375806;19;20228;-73
2023/07/28 00:38:31;;;;;;;0.00;0.00;;;;;;;;;;7379536;19;20172;-74
2023/07/28 00:41:00;;;;;;;0.00;0.00;;;;;;;;;;7377001;19;20184;-72
2023/07/28 00:43:29;;;;;;;0.00;0.00;;;;;;;;;;7376700;19;20140;-73
2023/07/28 00:45:57;;;;;;;0.00;0.00;;;;;;;;;;7385950;19;20160;-72
2023/07/28 00:48:27;;;;;;;0.00;0.00;;;;;;;;;;7386966;19;20152;-72
2023/07/28 00:50:57;;;;;;;0.00;0.00;;;;;;;;;;7383141;19;20188;-74
2023/07/28 00:53:29;;;;;;;0.00;0.00;;;;;;;;;;7386004;19;20181;-73
2023/07/28 00:55:58;;;;;;;0.00;0.00;;;;;;;;;;7383670;19;20811;-74
2023/07/28 00:58:27;;;;;;;0.00;0.00;;;;;;;;;;7387138;19;20152;-73
2023/07/28 01:00:56;;;;;;;0.00;0.00;;;;;;;;;;7383555;19;20542;-73
2023/07/28 01:03:28;;;;;;;0.00;0.00;;;;;;;;;;7387054;19;20129;-74
2023/07/28 01:06:01;;;;;;;0.00;0.00;;;;;;;;;;7386498;19;20148;-72
2023/07/28 01:08:36;;;;;;;0.00;0.00;;;;;;;;;;7384922;19;20498;-73
2023/07/28 01:11:05;;;;;;;0.00;0.00;;;;;;;;;;7380656;19;20176;-74
2023/07/28 01:13:34;;;;;;;0.00;0.00;;;;;;;;;;7388004;19;20478;-73
2023/07/28 01:16:03;;;;;;;0.00;0.00;;;;;;;;;;7383919;19;20133;-73
2023/07/28 01:18:32;;;;;;;0.00;0.00;;;;;;;;;;7385185;19;20159;-73
2023/07/28 01:21:04;;;;;;;0.00;0.00;;;;;;;;;;7381638;19;20172;-74
2023/07/28 01:23:40;;;;;;;0.00;0.00;;;;;;;;;;7385884;19;20188;-73
2023/07/28 01:26:12;;;;;;;0.00;0.00;;;;;;;;;;7384296;19;20163;-73
2023/07/28 01:28:44;;;;;;;0.00;0.00;;;;;;;;;;7385260;19;20165;-73
2023/07/28 01:31:13;;;;;;;0.00;0.00;;;;;;;;;;7381491;19;20640;-72
2023/07/28 01:33:41;;;;;;;0.00;0.00;;;;;;;;;;7385592;19;20132;-74
2023/07/28 01:36:10;;;;;;;0.00;0.00;;;;;;;;;;7382262;19;20198;-74
2023/07/28 01:38:39;;;;;;;0.00;0.00;;;;;;;;;;7383800;19;20160;-73
2023/07/28 01:41:08;;;;;;;0.00;0.00;;;;;;;;;;7382403;19;20148;-71
2023/07/28 01:43:37;;;;;;;0.00;0.00;;;;;;;;;;7385985;19;20216;-73
2023/07/28 01:46:09;;;;;;;0.00;0.00;;;;;;;;;;7384001;19;20665;-73
2023/07/28 01:48:38;;;;;;;0.00;0.00;;;;;;;;;;7384295;19;20152;-72
2023/07/28 01:51:07;;;;;;;0.00;0.00;;;;;;;;;;7381773;19;20156;-74
2023/07/28 01:53:36;;;;;;;0.00;0.00;;;;;;;;;;7384392;19;20212;-74
2023/07/28 01:56:05;;;;;;;0.00;0.00;;;;;;;;;;7381505;19;20224;-74
2023/07/28 01:58:35;;;;;;;0.00;0.00;;;;;;;;;;7383521;19;20153;-72
2023/07/28 02:01:04;;;;;;;0.00;0.00;;;;;;;;;;7380180;19;20273;-74
2023/07/28 02:03:35;;;;;;;0.00;0.00;;;;;;;;;;7383999;19;20159;-74
2023/07/28 02:06:04;;;;;;;0.00;0.00;;;;;;;;;;7380840;19;20141;-74
2023/07/28 02:08:33;;;;;;;0.00;0.00;;;;;;;;;;7385673;19;20137;-74
2023/07/28 02:11:02;;;;;;;0.00;0.00;;;;;;;;;;7379387;19;20176;-72
2023/07/28 02:13:31;;;;;;;0.00;0.00;;;;;;;;;;7383735;19;20156;-73
2023/07/28 02:16:00;;;;;;;0.00;0.00;;;;;;;;;;7380083;19;20160;-74
2023/07/28 02:18:29;;;;;;;0.00;0.00;;;;;;;;;;7381617;19;20161;-75
2023/07/28 02:21:01;;;;;;;0.00;0.00;;;;;;;;;;7379678;19;20222;-73
2023/07/28 02:23:30;;;;;;;0.00;0.00;;;;;;;;;;7381979;19;20170;-74
2023/07/28 02:25:59;;;;;;;0.00;0.00;;;;;;;;;;7379825;19;20156;-73
2023/07/28 02:28:28;;;;;;;0.00;0.00;;;;;;;;;;7383159;19;20148;-74
2023/07/28 02:30:59;;;;;;;0.00;0.00;;;;;;;;;;7377651;19;20248;-74
2023/07/28 02:33:31;;;;;;;0.00;0.00;;;;;;;;;;7382494;19;20186;-73
2023/07/28 02:36:03;;;;;;;0.00;0.00;;;;;;;;;;7380509;19;20244;-74
2023/07/28 02:38:32;;;;;;;0.00;0.00;;;;;;;;;;7383242;19;20153;-73
2023/07/28 02:41:01;;;;;;;0.00;0.00;;;;;;;;;;7379459;19;20184;-74
2023/07/28 02:43:29;;;;;;;0.00;0.00;;;;;;;;;;7382469;19;20133;-74
2023/07/28 02:45:59;;;;;;;0.00;0.00;;;;;;;;;;7382452;19;20188;-74
2023/07/28 02:48:28;;;;;;;0.00;0.00;;;;;;;;;;7384034;19;20144;-74
2023/07/28 02:50:57;;;;;;;0.00;0.00;;;;;;;;;;7379294;19;20168;-73
2023/07/28 02:53:28;;;;;;;0.00;0.00;;;;;;;;;;7382299;19;20192;-74
2023/07/28 02:55:57;;;;;;;0.00;0.00;;;;;;;;;;7381672;19;20177;-73
2023/07/28 02:58:26;;;;;;;0.00;0.00;;;;;;;;;;7381615;19;20149;-74
2023/07/28 03:00:55;;;;;;;0.00;0.00;;;;;;;;;;7381582;19;20161;-73
2023/07/28 03:03:32;;;;;;;0.00;0.00;;;;;;;;;;7380961;19;20157;-73
2023/07/28 03:06:01;;;;;;;0.00;0.00;;;;;;;;;;7382657;19;20137;-74
2023/07/28 03:08:33;;;;;;;0.00;0.00;;;;;;;;;;7378784;19;20156;-73
2023/07/28 03:11:19;;;;;;;0.00;0.00;;;;;;;;;;7377850;19;20280;-74
2023/07/28 03:13:49;;;;;;;0.00;0.00;;;;;;;;;;7379495;19;20161;-73
2023/07/28 03:16:18;;;;;;;0.00;0.00;;;;;;;;;;7378885;19;20153;-73
2023/07/28 03:18:47;;;;;;;0.00;0.00;;;;;;;;;;7380549;19;20216;-73
2023/07/28 03:21:16;;;;;;;0.00;0.00;;;;;;;;;;7377395;19;20184;-73
2023/07/28 03:23:47;;;;;;;0.00;0.00;;;;;;;;;;7380702;19;20157;-74
2023/07/28 03:26:16;;;;;;;0.00;0.00;;;;;;;;;;7379508;19;20156;-74
2023/07/28 03:28:45;;;;;;;0.00;0.00;;;;;;;;;;7379643;19;20153;-74
2023/07/28 03:31:15;;;;;;;0.00;0.00;;;;;;;;;;7375821;19;20176;-74
2023/07/28 03:33:44;;;;;;;0.00;0.00;;;;;;;;;;7379261;19;20141;-74
2023/07/28 03:36:13;;;;;;;0.00;0.00;;;;;;;;;;7379737;19;20220;-73
2023/07/28 03:38:42;;;;;;;0.00;0.00;;;;;;;;;;7379919;19;20145;-74
2023/07/28 03:41:14;;;;;;;0.00;0.00;;;;;;;;;;7377879;19;20180;-74
2023/07/28 03:43:44;;;;;;;0.00;0.00;;;;;;;;;;7380112;19;20152;-73
2023/07/28 03:46:13;;;;;;;0.00;0.00;;;;;;;;;;7379827;19;20149;-73
2023/07/28 03:48:42;;;;;;;0.00;0.00;;;;;;;;;;7380396;19;20152;-73
2023/07/28 03:51:11;;;;;;;0.00;0.00;;;;;;;;;;7377018;19;20200;-74
2023/07/28 03:53:40;;;;;;;0.00;0.00;;;;;;;;;;7379799;19;20178;-74
2023/07/28 03:56:09;;;;;;;0.00;0.00;;;;;;;;;;7380404;19;20261;-75
2023/07/28 03:58:41;;;;;;;0.00;0.00;;;;;;;;;;7379484;19;20152;-73
2023/07/28 04:01:09;;;;;;;0.00;0.00;;;;;;;;;;7379049;19;20188;-74
2023/07/28 04:03:39;;;;;;;0.00;0.00;;;;;;;;;;7381614;19;20167;-74
2023/07/28 04:06:09;;;;;;;0.00;0.00;;;;;;;;;;7380527;19;20137;-73
2023/07/28 04:08:38;;;;;;;0.00;0.00;;;;;;;;;;7379560;19;20220;-74
2023/07/28 04:11:07;;;;;;;0.00;0.00;;;;;;;;;;7377301;19;20184;-74
2023/07/28 04:13:36;;;;;;;0.00;0.00;;;;;;;;;;7380120;19;20167;-74
2023/07/28 04:16:08;;;;;;;0.00;0.00;;;;;;;;;;7379630;19;20117;-74
2023/07/28 04:18:40;;;;;;;0.00;0.00;;;;;;;;;;7382082;19;20679;-73
2023/07/28 04:21:09;;;;;;;0.00;0.00;;;;;;;;;;7385095;19;20200;-75
2023/07/28 04:23:37;;;;;;;0.00;0.00;;;;;;;;;;7386170;19;20164;-74
2023/07/28 04:26:06;;;;;;;0.00;0.00;;;;;;;;;;7384635;19;20802;-74
2023/07/28 04:28:36;;;;;;;0.00;0.00;;;;;;;;;;7384587;19;20152;-74
2023/07/28 04:31:08;;;;;;;0.00;0.00;;;;;;;;;;7383472;19;20195;-74
2023/07/28 04:33:50;;;;;;;0.00;0.00;;;;;;;;;;7386624;19;20152;-72
2023/07/28 04:36:19;;;;;;;0.00;0.00;;;;;;;;;;7385065;19;20140;-75
2023/07/28 04:38:48;;;;;;;0.00;0.00;;;;;;;;;;7385583;19;20148;-74
2023/07/28 04:41:17;;;;;;;0.00;0.00;;;;;;;;;;7382765;19;20228;-74
2023/07/28 04:43:53;;;;;;;0.00;0.00;;;;;;;;;;7385459;19;20152;-73
2023/07/28 04:46:25;;;;;;;0.00;0.00;;;;;;;;;;7386097;19;20178;-75
2023/07/28 04:48:58;;;;;;;0.00;0.00;;;;;;;;;;7385163;19;20168;-73
2023/07/28 04:51:46;;;;;;;0.00;0.00;;;;;;;;;;7385628;19;20164;-74
2023/07/28 04:54:33;;;;;;;0.00;0.00;;;;;;;;;;7386412;19;20238;-74
2023/07/28 04:57:02;;;;;;;0.00;0.00;;;;;;;;;;7383443;19;20703;-75
2023/07/28 04:59:35;;;;;;;0.00;0.00;;;;;;;;;;7384534;19;20156;-73
2023/07/28 05:02:07;;;;;;;0.00;0.00;;;;;;;;;;7381479;19;20176;-75
2023/07/28 05:04:37;;;;;;;0.00;0.00;;;;;;;;;;7384994;19;20232;-75
2023/07/28 05:07:06;;;;;;;0.00;0.00;;;;;;;;;;7386352;19;20173;-74
2023/07/28 05:09:35;;;;;;;0.00;0.00;;;;;;;;;;7384108;19;20633;-73
2023/07/28 05:12:04;;;;;;;0.00;0.00;;;;;;;;;;7382679;19;20184;-74
2023/07/28 05:14:38;;;;;;;0.00;0.00;;;;;;;;;;7385056;19;20148;-74
2023/07/28 05:17:10;;;;;;;0.00;0.00;;;;;;;;;;7384209;19;20153;-74
2023/07/28 05:19:48;;;;;;;0.00;0.00;;;;;;;;;;7385127;19;20168;-75
2023/07/28 05:22:36;;;;;;;0.00;0.00;;;;;;;;;;7384371;19;20182;-75
2023/07/28 05:25:05;;;;;;;0.00;0.00;;;;;;;;;;7384809;19;20161;-75
2023/07/28 05:27:37;;;;;;;0.00;0.00;;;;;;;;;;7384907;19;20148;-75
2023/07/28 05:30:07;;;;;;;0.00;0.00;;;;;;;;;;7380816;19;20237;-75
2023/07/28 05:32:38;;;;;;;0.00;0.00;;;;;;;;;;7384302;19;20163;-75
2023/07/28 05:35:21;;;;;;;0.00;0.00;;;;;;;;;;7384597;19;20223;-71
2023/07/28 05:37:50;;;;;;;0.00;0.00;;;;;;;;;;7385022;19;20151;-71
2023/07/28 05:40:19;;;;;;;0.00;0.00;;;;;;;;;;7382936;19;20214;-73
2023/07/28 05:42:49;;;;;;;0.00;0.00;;;;;;;;;;7384238;19;20191;-72
2023/07/28 05:45:18;;;;;;;0.00;0.00;;;;;;;;;;7384154;19;20163;-71
2023/07/28 05:47:50;;;;;;;0.00;0.00;;;;;;;;;;7384327;19;20217;-72
2023/07/28 05:50:19;;;;;;;0.00;0.00;;;;;;;;;;7381281;19;20250;-71
2023/07/28 05:52:48;;;;;;;0.00;0.00;;;;;;;;;;7384426;19;20160;-70
2023/07/28 05:55:17;;;;;;;0.00;0.00;;;;;;;;;;7382771;19;20181;-71
2023/07/28 05:57:47;;;;;;;0.00;0.00;;;;;;;;;;7382839;19;20177;-72
2023/07/28 06:00:17;;;;;;;0.00;0.00;;;;;;;;;;7385431;19;20184;-69
2023/07/28 06:02:47;;;;;;;0.00;0.00;;;;;;;;;;7388650;19;20150;-72
2023/07/28 06:05:34;;;;;;;0.00;0.00;;;;;;;;;;7384692;19;20157;-71
2023/07/28 06:08:04;;;;;;;0.00;0.00;;;;;;;;;;7386669;19;20148;-72
2023/07/28 06:10:33;;;;;;;0.00;0.00;;;;;;;;;;7386158;19;20188;-72
2023/07/28 06:13:02;;;;;;;0.00;0.00;;;;;;;;;;7383401;19;20680;-74
2023/07/28 06:15:34;;;;;;;0.00;0.00;;;;;;;;;;7385251;19;20152;-73
2023/07/28 06:18:04;;;;;;;0.00;0.00;;;;;;;;;;7383756;19;20156;-73
2023/07/28 06:20:37;;;;;;;0.00;0.00;;;;;;;;;;7383521;19;20272;-71
2023/07/28 06:23:06;;;;;;;0.00;0.00;;;;;;;;;;7382852;19;20256;-72
2023/07/28 06:25:37;;;;;;;0.00;0.00;;;;;;;;;;7385298;19;20149;-72
2023/07/28 06:28:10;;;;;;;0.00;0.00;;;;;;;;;;7382474;19;20163;-72
2023/07/28 06:30:39;;;;;;;0.00;0.00;;;;;;;;;;7383893;19;20185;-70
2023/07/28 06:33:09;;;;;;;0.00;0.00;;;;;;;;;;7384054;19;20156;-72
2023/07/28 06:35:40;;;;;;;0.00;0.00;;;;;;;;;;7384179;19;20161;-72
2023/07/28 06:38:09;;;;;;;0.00;0.00;;;;;;;;;;7382463;19;20153;-71
2023/07/28 06:40:39;;;;;;;0.00;0.00;;;;;;;;;;7385036;19;20193;-71
2023/07/28 06:43:11;;;;;;;0.00;0.00;;;;;;;;;;7388156;19;20141;-70
2023/07/28 06:45:41;;;;;;;0.00;0.00;;;;;;;;;;7383725;19;20160;-73
2023/07/28 06:48:10;;;;;;;0.00;0.00;;;;;;;;;;7383614;19;20155;-66
2023/07/28 06:50:42;;;;;;;0.00;0.00;;;;;;;;;;7380459;19;20265;-68
2023/07/28 06:53:11;;;;;;;0.00;0.00;;;;;;;;;;7381599;19;20160;-71
2023/07/28 06:55:41;;;;;;;0.00;0.00;;;;;;;;;;7383105;19;20255;-70
2023/07/28 06:58:10;;;;;;;0.00;0.00;;;;;;;;;;7380728;19;20152;-69
2023/07/28 07:00:39;;;;;;;0.00;0.00;;;;;;;;;;7380494;19;20184;-69
2023/07/28 07:03:09;;;;;;;0.00;0.00;;;;;;;;;;7381924;19;20171;-68
2023/07/28 07:05:38;;;;;;;0.00;0.00;;;;;;;;;;7381975;19;20704;-70
2023/07/28 07:08:09;;;;;;;0.00;0.00;;;;;;;;;;7382120;19;20898;-71
2023/07/28 07:10:39;;;;;;;0.00;0.00;;;;;;;;;;7378758;19;20177;-72
2023/07/28 07:13:12;;;;;;;0.00;0.00;;;;;;;;;;7383331;19;20152;-72
2023/07/28 07:15:41;;;;;;;0.00;0.00;;;;;;;;;;7383161;19;20155;-72
2023/07/28 07:18:10;;;;;;;0.00;0.00;;;;;;;;;;7384650;19;20223;-72
2023/07/28 07:20:40;;;;;;;0.00;0.00;;;;;;;;;;7386328;19;20580;-72
2023/07/28 07:23:11;;;;;;;0.00;0.00;;;;;;;;;;7383657;19;20157;-72
2023/07/28 07:25:40;;;;;;;0.00;0.00;;;;;;;;;;7387746;19;20137;-70
2023/07/28 07:28:09;;;;;;;0.00;0.00;;;;;;;;;;7384451;19;20152;-70
2023/07/28 07:30:39;;;;;;;0.00;0.00;;;;;;;;;;7385111;19;20149;-73
2023/07/28 07:33:08;;;;;;;0.00;0.00;;;;;;;;;;7383933;19;20147;-72
2023/07/28 07:35:39;;;;;;;0.00;0.00;;;;;;;;;;7381371;19;20243;-73
2023/07/28 07:38:11;;;;;;;0.00;0.00;;;;;;;;;;7382387;19;20145;-72
2023/07/28 07:40:38;;;;;;;0.00;0.00;;;;;;;;;;7380834;19;20188;-73
2023/07/28 07:43:07;;;;;;;0.00;0.00;;;;;;;;;;7381827;19;20148;-73
2023/07/28 07:45:36;;;;;;;0.00;0.00;;;;;;;;;;7380921;19;20273;-73
2023/07/28 07:48:05;;;;;;;0.00;0.00;;;;;;;;;;7384031;19;20145;-72
2023/07/28 07:50:35;;;;;;;0.00;0.00;;;;;;;;;;7380399;19;20201;-72
2023/07/28 07:53:04;;;;;;;0.00;0.00;;;;;;;;;;7379245;19;20148;-73
2023/07/28 07:55:36;;;;;;;0.00;0.00;;;;;;;;;;7381008;19;20157;-73
2023/07/28 07:58:06;;;;;;;0.00;0.00;;;;;;;;;;7379807;19;20152;-72
2023/07/28 08:00:35;;;;;;;0.00;0.00;;;;;;;;;;7378922;19;20184;-71
2023/07/28 08:03:04;;;;;;;0.00;0.00;;;;;;;;;;7384035;19;20160;-71
2023/07/28 08:05:33;;;;;;;0.00;0.00;;;;;;;;;;7382346;19;20198;-73
2023/07/28 08:08:02;;;;;;;0.00;0.00;;;;;;;;;;7380854;19;20163;-73
2023/07/28 08:10:32;;;;;;;0.00;0.00;;;;;;;;;;7381382;19;20180;-72
2023/07/28 08:13:03;;;;;;;0.00;0.00;;;;;;;;;;7385625;19;20692;-72
2023/07/28 08:15:32;;;;;;;0.00;0.00;;;;;;;;;;7383706;19;20175;-70
2023/07/28 08:18:03;;;;;;;0.00;0.00;;;;;;;;;;7383666;19;20141;-70
2023/07/28 08:20:32;;;;;;;0.00;0.00;;;;;;;;;;7382516;19;20180;-69
2023/07/28 08:23:02;;;;;;;0.00;0.00;;;;;;;;;;7383386;19;20238;-70
2023/07/28 08:25:31;;;;;;;0.00;0.00;;;;;;;;;;7379362;19;20149;-67
2023/07/28 08:28:01;;;;;;;0.00;0.00;;;;;;;;;;7382211;19;20152;-69
2023/07/28 08:30:32;;;;;;;0.00;0.00;;;;;;;;;;7382108;19;20165;-69
2023/07/28 08:33:02;;;;;;;0.00;0.00;;;;;;;;;;7381858;19;20133;-70
2023/07/28 08:35:31;;;;;;;0.00;0.00;;;;;;;;;;7383488;19;20152;-69
2023/07/28 08:37:59;;;;;;;0.00;0.00;;;;;;;;;;7379765;19;20194;-71
2023/07/28 08:40:29;;;;;;;0.00;0.00;;;;;;;;;;7377181;19;20156;-71
2023/07/28 08:42:58;;;;;;;0.00;0.00;;;;;;;;;;7381059;19;20137;-72
2023/07/28 08:45:28;;;;;;;0.00;0.00;;;;;;;;;;7380998;19;20125;-72
2023/07/28 08:48:00;;;;;;;0.00;0.00;;;;;;;;;;7378612;19;20136;-71
2023/07/28 08:50:29;;;;;;;0.00;0.00;;;;;;;;;;7377862;19;20184;-71
2023/07/28 08:53:00;;;;;;;0.00;0.00;;;;;;;;;;7377136;19;20156;-67
2023/07/28 08:55:29;;;;;;;0.00;0.00;;;;;;;;;;7379735;19;20141;-71
2023/07/28 08:57:58;;;;;;;0.00;0.00;;;;;;;;;;7376079;19;20148;-73
2023/07/28 09:00:27;;;;;;;0.00;0.00;;;;;;;;;;7378222;19;20183;-69
2023/07/28 09:02:59;;;;;;;0.00;0.00;;;;;;;;;;7378307;19;20145;-68
2023/07/28 09:05:29;;;;;;;0.00;0.00;;;;;;;;;;7380616;19;20141;-66
2023/07/28 09:08:01;;;;;;;0.00;0.00;;;;;;;;;;7384425;19;20153;-69
2023/07/28 09:10:43;;;;;;;0.00;0.00;;;;;;;;;;7385404;19;20176;-69
2023/07/28 09:13:13;;;;;;;0.00;0.00;;;;;;;;;;7387520;19;20216;-71
2023/07/28 09:15:42;;;;;;;0.00;0.00;;;;;;;;;;7384690;19;20152;-72
2023/07/28 09:18:15;;;;;;;0.00;0.00;;;;;;;;;;7383678;19;20240;-69
2023/07/28 09:20:44;;;;;;;0.00;0.00;;;;;;;;;;7382922;19;20277;-70
2023/07/28 09:23:14;;;;;;;0.00;0.00;;;;;;;;;;7383154;19;20148;-69
2023/07/28 09:25:43;;;;;;;0.00;0.00;;;;;;;;;;7384437;19;20144;-71
2023/07/28 09:28:12;;;;;;;0.00;0.00;;;;;;;;;;7386369;19;20137;-71
2023/07/28 09:30:49;;;;;;;0.00;0.00;;;;;;;;;;7386530;19;20479;-72
2023/07/28 09:33:31;;;;;;;0.00;0.00;;;;;;;;;;7386795;19;20238;-72
2023/07/28 09:36:00;;;;;;;0.00;0.00;;;;;;;;;;7383938;19;20149;-72
2023/07/28 09:38:30;;;;;;;0.00;0.00;;;;;;;;;;7385900;19;20640;-71
2023/07/28 09:41:02;;;;;;;0.00;0.00;;;;;;;;;;7385322;19;20167;-71
2023/07/28 09:43:30;;;;;;;0.00;0.00;;;;;;;;;;7381127;19;20161;-72
2023/07/28 09:46:00;;;;;;;0.00;0.00;;;;;;;;;;7385493;19;20143;-73
2023/07/28 09:48:34;;;;;;;0.00;0.00;;;;;;;;;;7384783;19;20174;-72
2023/07/28 09:51:06;;;;;;;0.00;0.00;;;;;;;;;;7381946;19;20159;-72
2023/07/28 09:53:39;;;;;;;0.00;0.00;;;;;;;;;;7381779;19;20153;-73
2023/07/28 09:56:08;;;;;;;0.00;0.00;;;;;;;;;;7382255;19;20177;-70
2023/07/28 09:58:38;;;;;;;0.00;0.00;;;;;;;;;;7381419;19;20156;-71
2023/07/28 10:01:08;;;;;;;0.00;0.00;;;;;;;;;;7381160;19;20149;-70
2023/07/28 10:03:39;;;;;;;0.00;0.00;;;;;;;;;;7383457;19;20145;-71
2023/07/28 10:06:09;;;;;;;0.00;0.00;;;;;;;;;;7382703;19;20152;-71
2023/07/28 10:08:38;;;;;;;0.00;0.00;;;;;;;;;;7381985;19;20149;-71
2023/07/28 10:11:07;;;;;;;0.00;0.00;;;;;;;;;;7379400;19;20172;-70
2023/07/28 10:13:43;;;;;;;0.00;0.00;;;;;;;;;;7382825;19;20149;-71
2023/07/28 10:16:14;;;;;;;0.00;0.00;;;;;;;;;;7381155;19;20156;-71
2023/07/28 10:18:57;;;;;;;0.00;0.00;;;;;;;;;;7379726;19;20163;-71
2023/07/28 10:21:31;;;;;;;0.00;0.00;;;;;;;;;;7380701;19;20187;-70
2023/07/28 10:24:02;;;;;;;0.00;0.00;;;;;;;;;;7383694;19;20136;-70
2023/07/28 10:26:34;;;;;;;0.00;0.00;;;;;;;;;;7383685;19;20167;-70
2023/07/28 10:29:11;;;;;;;0.00;0.00;;;;;;;;;;7380871;19;20577;-73
2023/07/28 10:31:40;;;;;;;0.00;0.00;;;;;;;;;;7383995;19;20155;-74
2023/07/28 10:34:12;;;;;;;0.00;0.00;;;;;;;;;;7380299;19;20129;-73
2023/07/28 10:36:40;;;;;;;0.00;0.00;;;;;;;;;;7382556;19;20152;-72
2023/07/28 10:39:16;;;;;;;0.00;0.00;;;;;;;;;;7381336;19;20140;-71
2023/07/28 10:42:03;;;;;;;0.00;0.00;;;;;;;;;;7380546;19;20200;-72
2023/07/28 10:44:32;;;;;;;0.00;0.00;;;;;;;;;;7382788;19;20157;-72
2023/07/28 10:47:02;;;;;;;0.00;0.00;;;;;;;;;;7380466;19;20612;-70
2023/07/28 10:49:33;;;;;;;0.00;0.00;;;;;;;;;;7383745;19;20140;-70
2023/07/28 10:52:02;;;;;;;0.00;0.00;;;;;;;;;;7378424;19;20188;-72
2023/07/28 10:54:31;;;;;;;0.00;0.00;;;;;;;;;;7381594;19;20169;-72
2023/07/28 10:57:00;;;;;;;0.00;0.00;;;;;;;;;;7381191;19;20164;-71
2023/07/28 10:59:29;;;;;;;0.00;0.00;;;;;;;;;;7381448;19;20149;-69
2023/07/28 11:01:59;;;;;;;0.00;0.00;;;;;;;;;;7379089;19;20164;-71
2023/07/28 11:04:28;;;;;;;0.00;0.00;;;;;;;;;;7384064;19;20152;-71
2023/07/28 11:07:00;;;;;;;0.00;0.00;;;;;;;;;;7369276;19;20140;-68
2023/07/28 11:09:29;;;;;;;0.00;0.00;;;;;;;;;;7377229;19;20213;-70
2023/07/28 11:11:58;;;;;;;0.00;0.00;;;;;;;;;;7378104;19;20176;-70
2023/07/28 11:14:29;;;;;;;0.00;0.00;;;;;;;;;;7380781;19;20148;-72
2023/07/28 11:16:58;;;;;;;0.00;0.00;;;;;;;;;;7373410;19;20160;-71
2023/07/28 11:19:27;;;;;;;0.00;0.00;;;;;;;;;;7380465;19;20153;-70
2023/07/28 11:21:58;;;;;;;0.00;0.00;;;;;;;;;;7379886;19;20152;-72
2023/07/28 11:24:29;;;;;;;0.00;0.00;;;;;;;;;;7380849;19;20165;-71
2023/07/28 11:27:02;;;;;;;0.00;0.00;;;;;;;;;;7376678;19;20137;-73
2023/07/28 11:29:31;;;;;;;0.00;0.00;;;;;;;;;;7378024;19;20133;-72
2023/07/28 11:32:00;;;;;;;0.00;0.00;;;;;;;;;;7368127;19;20172;-72
2023/07/28 11:34:29;;;;;;;0.00;0.00;;;;;;;;;;7381284;19;20129;-72
2023/07/28 11:36:58;;;;;;;0.00;0.00;;;;;;;;;;7377170;19;20668;-70
2023/07/28 11:39:31;;;;;;;0.00;0.00;;;;;;;;;;7379884;19;20147;-70
2023/07/28 11:42:00;;;;;;;0.00;0.00;;;;;;;;;;7376448;19;20256;-72
2023/07/28 11:44:29;;;;;;;0.00;0.00;;;;;;;;;;7379191;19;20275;-73
2023/07/28 11:47:00;;;;;;;0.00;0.00;;;;;;;;;;7373367;19;20137;-71
2023/07/28 11:49:28;;;;;;;0.00;0.00;;;;;;;;;;7379196;19;20160;-71
2023/07/28 11:51:58;;;;;;;0.00;0.00;;;;;;;;;;7377740;19;20152;-71
2023/07/28 11:54:30;;;;;;;0.00;0.00;;;;;;;;;;7380396;19;20153;-72
2023/07/28 11:56:59;;;;;;;0.00;0.00;;;;;;;;;;7380999;19;20129;-72
2023/07/28 11:59:28;;;;;;;0.00;0.00;;;;;;;;;;7372038;19;20140;-72
2023/07/28 12:01:58;;;;;;;0.00;0.00;;;;;;;;;;7374785;19;20163;-72
2023/07/28 12:04:28;;;;;;;0.00;0.00;;;;;;;;;;7370026;19;20167;-71
2023/07/28 12:07:07;;;;;;;0.00;0.00;;;;;;;;;;7381035;19;20140;-72
2023/07/28 12:09:51;;;;;;;0.00;0.00;;;;;;;;;;7372351;19;20192;-70
2023/07/28 12:12:21;;;;;;;0.00;0.00;;;;;;;;;;7378971;19;20139;-71
2023/07/28 12:14:51;;;;;;;0.00;0.00;;;;;;;;;;7381082;19;20133;-71
2023/07/28 12:17:20;;;;;;;0.00;0.00;;;;;;;;;;7378018;19;20167;-70
2023/07/28 12:19:59;;;;;;;0.00;0.00;;;;;;;;;;7377128;19;20129;-70
2023/07/28 12:22:28;;;;;;;0.00;0.00;;;;;;;;;;7370557;19;20612;-70
2023/07/28 12:25:00;;;;;;;0.00;0.00;;;;;;;;;;7380232;19;20128;-69
2023/07/28 12:27:29;;;;;;;0.00;0.00;;;;;;;;;;7370274;19;20159;-71
2023/07/28 12:29:58;;;;;;;0.00;0.00;;;;;;;;;;7376537;19;20156;-71
2023/07/28 12:32:27;;;;;;;0.00;0.00;;;;;;;;;;7380443;19;20145;-71
2023/07/28 12:34:56;;;;;;;0.00;0.00;;;;;;;;;;7380497;19;20160;-71
2023/07/28 12:37:25;;;;;;;0.00;0.00;;;;;;;;;;7378338;19;20157;-71
2023/07/28 12:39:54;;;;;;;0.00;0.00;;;;;;;;;;7379777;19;20165;-72
2023/07/28 12:42:26;;;;;;;0.00;0.00;;;;;;;;;;7384445;19;20493;-71
2023/07/28 12:44:55;;;;;;;0.00;0.00;;;;;;;;;;7387763;19;20201;-71
2023/07/28 12:47:24;;;;;;;0.00;0.00;;;;;;;;;;7383307;19;20152;-71
2023/07/28 12:49:53;;;;;;;0.00;0.00;;;;;;;;;;7384598;19;20628;-70
2023/07/28 12:52:22;;;;;;;0.00;0.00;;;;;;;;;;7382756;19;20233;-72
2023/07/28 12:54:51;;;;;;;0.00;0.00;;;;;;;;;;7385663;19;20164;-69
2023/07/28 12:57:20;;;;;;;0.00;0.00;;;;;;;;;;7383607;19;20660;-68
2023/07/28 12:59:52;;;;;;;0.00;0.00;;;;;;;;;;7383468;19;20160;-69
2023/07/28 13:02:21;;;;;;;0.00;0.00;;;;;;;;;;7385402;19;20137;-70
2023/07/28 13:04:50;;;;;;;0.00;0.00;;;;;;;;;;7385461;19;20137;-70
2023/07/28 13:07:19;;;;;;;0.00;0.00;;;;;;;;;;7385305;19;20170;-70
2023/07/28 13:09:48;;;;;;;0.00;0.00;;;;;;;;;;7385014;19;20153;-73
2023/07/28 13:12:17;;;;;;;0.00;0.00;;;;;;;;;;7383143;19;20145;-72
2023/07/28 13:14:46;;;;;;;0.00;0.00;;;;;;;;;;7385594;19;20161;-71
2023/07/28 13:17:17;;;;;;;0.00;0.00;;;;;;;;;;7386606;19;20133;-70
2023/07/28 13:19:46;;;;;;;0.00;0.00;;;;;;;;;;7384767;19;20147;-70
2023/07/28 13:22:15;;;;;;;0.00;0.00;;;;;;;;;;7381284;19;20157;-71
2023/07/28 13:24:44;;;;;;;0.00;0.00;;;;;;;;;;7384294;19;20546;-73
2023/07/28 13:27:13;;;;;;;0.00;0.00;;;;;;;;;;7384153;19;20137;-72
2023/07/28 13:29:42;;;;;;;0.00;0.00;;;;;;;;;;7375902;19;20157;-73
2023/07/28 13:32:21;;;;;;;0.00;0.00;;;;;;;;;;7384338;19;20198;-72
2023/07/28 13:34:51;;;;;;;0.00;0.00;;;;;;;;;;7381035;19;20149;-71
2023/07/28 13:37:20;;;;;;;0.00;0.00;;;;;;;;;;7380500;19;20153;-71
2023/07/28 13:39:51;;;;;;;0.00;0.00;;;;;;;;;;7382777;19;20170;-71
2023/07/28 13:42:20;;;;;;;0.00;0.00;;;;;;;;;;7383729;19;20223;-70
2023/07/28 13:44:49;;;;;;;0.00;0.00;;;;;;;;;;7384976;19;20161;-71
2023/07/28 13:47:20;;;;;;;0.00;0.00;;;;;;;;;;7384282;19;20511;-70
2023/07/28 13:49:49;;;;;;;0.00;0.00;;;;;;;;;;7385238;19;20133;-71
2023/07/28 13:52:18;;;;;;;0.00;0.00;;;;;;;;;;7379344;19;20165;-70
2023/07/28 13:54:48;;;;;;;0.00;0.00;;;;;;;;;;7385255;19;20133;-72
2023/07/28 13:57:17;;;;;;;0.00;0.00;;;;;;;;;;7384104;19;20141;-71
2023/07/28 13:59:46;;;;;;;0.00;0.00;;;;;;;;;;7384082;19;20137;-71
2023/07/28 14:02:15;;;;;;;0.00;0.00;;;;;;;;;;7380093;19;20184;-71
2023/07/28 14:04:46;;;;;;;0.00;0.00;;;;;;;;;;7386000;19;20141;-72
2023/07/28 14:07:15;;;;;;;0.00;0.00;;;;;;;;;;7382899;19;20160;-70
2023/07/28 14:09:44;;;;;;;0.00;0.00;;;;;;;;;;7382879;19;20515;-70
2023/07/28 14:12:13;;;;;;;0.00;0.00;;;;;;;;;;7379599;19;20176;-70
2023/07/28 14:14:42;;;;;;;0.00;0.00;;;;;;;;;;7382074;19;20156;-72
2023/07/28 14:17:11;;;;;;;0.00;0.00;;;;;;;;;;7383698;19;20162;-71
2023/07/28 14:19:41;;;;;;;0.00;0.00;;;;;;;;;;7382028;19;20153;-70
2023/07/28 14:22:13;;;;;;;0.00;0.00;;;;;;;;;;7379415;19;20184;-69
2023/07/28 14:24:41;;;;;;;0.00;0.00;;;;;;;;;;7385513;19;20141;-71
2023/07/28 14:27:10;;;;;;;0.00;0.00;;;;;;;;;;7382792;19;20157;-69
2023/07/28 14:29:39;;;;;;;0.00;0.00;;;;;;;;;;7384587;19;20141;-71
2023/07/28 14:32:08;;;;;;;0.00;0.00;;;;;;;;;;7379207;19;20192;-71
2023/07/28 14:34:37;;;;;;;0.00;0.00;;;;;;;;;;7382923;19;20181;-70
2023/07/28 14:37:07;;;;;;;0.00;0.00;;;;;;;;;;7380830;19;20161;-71
2023/07/28 14:39:39;;;;;;;0.00;0.00;;;;;;;;;;7382167;19;20166;-71
2023/07/28 14:42:08;;;;;;;0.00;0.00;;;;;;;;;;7381829;19;20148;-70
2023/07/28 14:44:37;;;;;;;0.00;0.00;;;;;;;;;;7382867;19;20148;-70
2023/07/28 14:47:06;;;;;;;0.00;0.00;;;;;;;;;;7380685;19;20160;-71
2023/07/28 14:49:35;;;;;;;0.00;0.00;;;;;;;;;;7381106;19;20189;-71
2023/07/28 14:52:04;;;;;;;0.00;0.00;;;;;;;;;;7380751;19;20152;-72
2023/07/28 14:54:33;;;;;;;0.00;0.00;;;;;;;;;;7381522;19;20156;-71
2023/07/28 14:57:04;;;;;;;0.00;0.00;;;;;;;;;;7381981;19;20153;-71
2023/07/28 14:59:33;;;;;;;0.00;0.00;;;;;;;;;;7380955;19;20210;-70
2023/07/28 15:02:02;;;;;;;0.00;0.00;;;;;;;;;;7380315;19;20181;-70